OLBA/BEY METAR and TAF weather

Enter ICAO airport designator
Station Type Date Time Source
OLBA METAR 2022/05/24 11:00 UTC NOAA

OLBA 241100Z 20010KT 8000 FEW030 24/19 Q1014 NOSIG


Station Type Date Time Source
OLBA Decoded METAR 2022/05/24 11:00 UTC NOAA

Beyrouth Aeroport , Lebanon (OLBA) 33-49N 035-29E 19M
May 24, 2022 - 07:00 AM EDT / 2022.05.24 1100 UTC
Wind: from the SSW (200 degrees) at 12 MPH (10 KT):0
Visibility: 4 mile(s):0
Sky conditions: mostly clear
Temperature: 75 F (24 C)
Dew Point: 66 F (19 C)
Relative Humidity: 73%
Pressure (altimeter): 29.94 in. Hg (1014 hPa)
ob: OLBA 241100Z 20010KT 8000 FEW030 24/19 Q1014 NOSIG
cycle: 11

Station Type Date Time Source
OLBA TAF 2022/05/24 12:58 UTC NOAA

TAF OLBA 241000Z 2412/2518 23015G25KT 8000 SCT027
BECMG 2418/2421 14005KT 8000
TEMPO 2418/2506 5000 BR
BECMG 2506/2509 32008KT
BECMG 2515/2518 9999 FEW027

Example: see airport list